Terminal Aerodrome Forecast
Issued by NWS

Home | Current Version | Previous Version | Text Only | Print | Product List | Glossary On
Versions: 1 2 3 4 5 6 7 8 9 10 11 12 13 14 15 16
000
FTUS43 KABR 190527
TAFPIR
TAF
KPIR 190527Z 1906/2006 15007KT P6SM BKN250
     FM191700 17013G19KT P6SM SKC
     FM200100 15011KT P6SM SKC WS020/19040KT=

USA.gov is the U.S. government's official web portal to all federal, state and local government web resources and services.